Terminal Aerodrome Forecast
Issued by NWS Grand Junction, CO

Home | Current Version | Previous Version | Text Only | Print | Product List | Glossary On
Versions: 1 2 3 4 5 6 7 8 9 10 11 12 13 14 15 16 17 18 19 20 21 22 23 24 25 26 27 28 29 30 31 32 33 34 35
000
FTUS45 KGJT 251120
TAFGJT
TAF
KGJT 251120Z 2512/2612 11012KT P6SM VCTS SCT100CB BKN150
      TEMPO 2512/2515 VRB15G25KT -SHRA BKN100
     FM251500 15008KT P6SM SCT100 BKN150
     FM252000 29009KT P6SM VCTS SCT090CB BKN150
     FM260100 14010KT P6SM VCTS SCT100CB BKN150
     FM260400 11010KT P6SM FEW100 SCT150=

USA.gov is the U.S. government's official web portal to all federal, state and local government web resources and services.